Aeroboteco Virtual Airline

Aeroboteco Virtual Airlines! Uma nuvem a frente.



 INFORMAÇÕES METEOROLÓGICAS
METAR FOR EGLC
ADDS - METARS form results

(1316 UTC 17 January 2019)
Data provider http://aviationweather.gov/metar/data/
 
METAR text: EGLC 171250Z AUTO 30014KT 260V340 9999 NCD 05/M04 Q1012
Conditions at: EGLC (LONDON CITY AIRP, GB) observed 1250 UTC 17 January 2019
Temperature: 5.0°C (41°F)
Dewpoint: -4.0°C (25°F) [RH = 52%]
Pressure (altimeter): 29.88 inches Hg (1012.0 mb)
Winds: from the WNW (300 degrees) at 16 MPH (14 knots; 7.2 m/s)
Visibility: 6 or more miles (10+ km)
Ceiling: at least 12,000 feet AGL
Clouds: sky clear below 12,000 feet AGL
Weather: no significant weather observed at this time

METAR text: EGLC 171220Z AUTO 30014KT 9999 FEW037 04/M03 Q1012
Conditions at: EGLC (LONDON CITY AIRP, GB) observed 1220 UTC 17 January 2019
Temperature: 4.0°C (39°F)
Dewpoint: -3.0°C (27°F) [RH = 60%]
Pressure (altimeter): 29.88 inches Hg (1012.0 mb)
Winds: from the WNW (300 degrees) at 16 MPH (14 knots; 7.2 m/s)
Visibility: 6 or more miles (10+ km)
Ceiling: at least 12,000 feet AGL
Clouds: few clouds at 3700 feet AGL
Weather: no significant weather observed at this time

Forecast for: EGLC (LONDON CITY AIRP, GB)
Text: TAF EGLC 171056Z 1712/1721 31012KT 9999 FEW045
Forecast period: 1200 to 2100 UTC 17 January 2019
Forecast type: FROM: standard forecast or significant change
Winds: from the NW (310 degrees) at 14 MPH (12 knots; 6.2 m/s)
Visibility: 6 or more miles 10+ km)
Ceiling: at least 12,000 feet AGL
Clouds: few clouds at 4500 feet AGL
Weather: no significant weather forecast for this period

 MAPA DO AEROPORTO

 INFORMAÇÕES DA PISTA
Pista 10 Tamanho da pista 4948 ft Largura da pista 98 ft
Elevação da pista 16 ft Ranhura da pista 358 ft Proa da pista 93
Pista 28 Tamanho da pista 4948 ft Largura da pista 98 ft
Elevação da pista 19 ft Ranhura da pista 211 ft Proa da pista 273

 FREQUÊNCIAS DO AEROPORTO
Tipo APP Nome APP Frequência 132.7 MHZ
Tipo ATIS Nome ATIS Frequência 136.35 MHZ
Tipo GND Nome GND Frequência 121.825 MHZ
Tipo TWR Nome TWR Frequência 118.075 MHZ

 AUXÍLIOS DE NAVEGAÇÃO PRÓXIMOS AO AEROPORTO
Tipo NDB Nome City Frequência 322 KHZ